Zim Vancouver — A8LK5 — position and weather

sailwx.info

Track history (hours):
 
Tides and Currents Weather Stations Pressure Air Temp Water Temp Dewpoint Dewpoint Depression Visibility Wind Speed Wind Dir Waves Ship Positions

Zim Vancouver

Last reported at 2016-May-25 17:23 UTC. Time now 2016-May-26 08:48 UTC.
Position N 34°08' W 076°10'.

Length 260 m; draft 10.6 m.

Type: Ship. MMSI: 636013214.

Date/timePositionNaut miles runAvg speedWind from/ knotsBaromVisibWave heightAir tempDewpointWater temp
2016-May-25 17:23N 34°08' W 076°10'1214.1
2016-May-25 16:34N 34°16' W 076°01'1413.5
2016-May-25 15:33N 34°26' W 075°50'1413.5
2016-May-25 14:34N 34°36' W 075°39'1414.0
2016-May-25 13:33N 34°47' W 075°28'1614.1
2016-May-25 12:24N 34°59' W 075°15'4014.0
2016-May-25 09:33N 35°39' W 075°09'4614.8
2016-May-25 06:28N 36°23' W 075°25'1314.7
2016-May-25 05:33N 36°35' W 075°32'2014.4
2016-May-25 04:11N 36°49' W 075°48'914.3
2016-May-25 03:33N 36°55' W 075°57'1413.4
2016-May-25 02:33N 37°00' W 076°13'9 8.8
2016-May-25 01:33N 36°54' W 076°20'1 1.2
2016-May-25 00:33N 36°53' W 076°21'0 0.0
2016-May-24 23:33N 36°53' W 076°21'0 0.0
2016-May-24 22:33N 36°53' W 076°21'0 0.0
2016-May-24 21:33N 36°53' W 076°21'0 0.0
2016-May-24 20:33N 36°53' W 076°21'0 0.0
2016-May-24 19:33N 36°53' W 076°21'0 0.0
2016-May-24 18:33N 36°53' W 076°21'0 0.0
2016-May-24 17:15N 36°53' W 076°21'0 0.0
2016-May-24 15:21N 36°53' W 076°21'3 3.3
2016-May-24 14:33N 36°55' W 076°20'1010.3
2016-May-24 13:33N 36°59' W 076°08'1312.9
2016-May-24 12:34N 36°54' W 075°53'2411.1
2016-May-24 10:24N 37°04' W 075°26'15615.8
2016-May-24 00:32N 39°24' W 074°00'1616.2
2016-May-23 23:34N 39°40' W 073°55'1616.4
2016-May-23 22:33N 39°56' W 073°52'3115.7
2016-May-23 20:33N 40°27' W 073°49'1413.9
2016-May-23 19:33N 40°37' W 074°03'6 5.6
2016-May-23 18:33N 40°40' W 074°08'0 0.0
2016-May-23 17:30N 40°40' W 074°08'0 0.0
2016-May-23 16:33N 40°40' W 074°08'0 0.0
2016-May-23 15:30N 40°40' W 074°08'0 0.0
2016-May-23 14:33N 40°40' W 074°08'0 0.0
2016-May-23 13:30N 40°40' W 074°08'0 0.0
2016-May-23 12:33N 40°40' W 074°08'0 0.0
2016-May-23 11:33N 40°40' W 074°08'0 0.0
2016-May-23 10:33N 40°40' W 074°08'0 0.0
2016-May-23 09:33N 40°40' W 074°08'0 0.0
2016-May-23 08:33N 40°40' W 074°08'0 0.0
2016-May-23 07:33N 40°40' W 074°08'0 0.0
2016-May-23 06:33N 40°40' W 074°08'0 0.0
2016-May-23 05:33N 40°40' W 074°08'0 0.0
2016-May-23 04:33N 40°40' W 074°08'0 0.0
2016-May-23 03:33N 40°40' W 074°08'0 0.0
2016-May-23 02:33N 40°40' W 074°08'0 0.0
2016-May-23 01:33N 40°40' W 074°08'0 0.0
2016-May-23 00:33N 40°40' W 074°08'0 0.0
2016-May-22 23:33N 40°40' W 074°08'0 0.0
2016-May-22 22:33N 40°40' W 074°08'0 0.0
2016-May-22 21:30N 40°40' W 074°08'0 0.0
2016-May-22 19:33N 40°40' W 074°08'0 0.0
2016-May-22 18:33N 40°40' W 074°08'0 0.0
2016-May-22 17:33N 40°40' W 074°08'0 0.0
2016-May-22 16:33N 40°40' W 074°08'0 0.0
2016-May-22 15:33N 40°40' W 074°08'0 0.0
2016-May-22 14:34N 40°40' W 074°08'3 2.7
2016-May-22 13:34N 40°39' W 074°05'1111.0
2016-May-22 12:33N 40°30' W 073°57'1110.6
2016-May-22 11:31N 40°27' W 073°43'5 0.6
2016-May-22 03:32N 40°30' W 073°38'0 0.0
2016-May-22 01:20N 40°30' W 073°38'76 8.3
2016-May-21 16:12N 40°31' W 071°58'  
2016-May-19 12:00N 44°00' W 062°24'22218.5 110 / 51022.010.8 0.5 7.0 5.0
2016-May-19 00:00N 43°00' W 057°30'10617.6 270 / 101021.010.8 1.011.0 7.0
2016-May-18 18:00N 42°30' W 055°12'39616.5 250 / 151022.010.8 2.513.010.0
2016-May-17 18:00N 41°36' W 046°24'10317.2 230 / 301021.0 5.4 3.019.017.0
2016-May-17 12:00N 41°36' W 044°06'10317.2 220 / 271022.0 5.4 3.020.017.020.0
2016-May-17 06:00N 41°36' W 041°48'9916.5 230 / 201027.0 5.4 18.017.0
2016-May-17 00:00N 41°36' W 039°36'10016.6 300 / 181030.0 5.4 18.017.0
2016-May-16 18:00N 41°24' W 037°24'19916.6 230 / 151028.5 5.4 2.519.016.024.0
2016-May-16 06:00N 41°06' W 033°00'6918.0 250 / 181024.010.8 17.015.0
2016-May-16 02:10N 40°59' W 031°29'2918.1
2016-May-16 00:32N 40°55' W 030°50'1528.7
2016-May-16 00:00N 40°54' W 030°30'4 7.2 280 / 81029.010.8 0.517.014.0
2016-May-15 23:30N 40°53' W 030°26'1718.5
2016-May-15 22:33N 40°50' W 030°03'1818.5
2016-May-15 21:33N 40°47' W 029°39'1918.6
2016-May-15 20:33N 40°44' W 029°14'2618.8
2016-May-15 19:09N 40°40' W 028°40'2218.8
2016-May-15 18:00N 40°36' W 028°12'   270 / 51028.010.8 0.521.016.0
Track history (hours):
 
Tides and Currents Weather Stations Pressure Air Temp Water Temp Dewpoint Dewpoint Depression Visibility Wind Speed Wind Dir Waves Ship Positions

Zim Vancouver

Last reported at 2016-May-25 17:23 UTC. Time now 2016-May-26 08:48 UTC.
Position N 34°08' W 076°10'.

Length 260 m; draft 10.6 m.

Type: Ship. MMSI: 636013214.

Date/timePositionNaut miles runAvg speedWind from/ knotsBaromVisibWave heightAir tempDewpointWater temp
2016-May-25 17:23N 34°08' W 076°10'1214.1
2016-May-25 16:34N 34°16' W 076°01'1413.5
2016-May-25 15:33N 34°26' W 075°50'1413.5
2016-May-25 14:34N 34°36' W 075°39'1414.0
2016-May-25 13:33N 34°47' W 075°28'1614.1
2016-May-25 12:24N 34°59' W 075°15'4014.0
2016-May-25 09:33N 35°39' W 075°09'4614.8
2016-May-25 06:28N 36°23' W 075°25'1314.7
2016-May-25 05:33N 36°35' W 075°32'2014.4
2016-May-25 04:11N 36°49' W 075°48'914.3
2016-May-25 03:33N 36°55' W 075°57'1413.4
2016-May-25 02:33N 37°00' W 076°13'9 8.8
2016-May-25 01:33N 36°54' W 076°20'1 1.2
2016-May-25 00:33N 36°53' W 076°21'0 0.0
2016-May-24 23:33N 36°53' W 076°21'0 0.0
2016-May-24 22:33N 36°53' W 076°21'0 0.0
2016-May-24 21:33N 36°53' W 076°21'0 0.0
2016-May-24 20:33N 36°53' W 076°21'0 0.0
2016-May-24 19:33N 36°53' W 076°21'0 0.0
2016-May-24 18:33N 36°53' W 076°21'0 0.0
2016-May-24 17:15N 36°53' W 076°21'0 0.0
2016-May-24 15:21N 36°53' W 076°21'3 3.3
2016-May-24 14:33N 36°55' W 076°20'1010.3
2016-May-24 13:33N 36°59' W 076°08'1312.9
2016-May-24 12:34N 36°54' W 075°53'2411.1
2016-May-24 10:24N 37°04' W 075°26'15615.8
2016-May-24 00:32N 39°24' W 074°00'1616.2
2016-May-23 23:34N 39°40' W 073°55'1616.4
2016-May-23 22:33N 39°56' W 073°52'3115.7
2016-May-23 20:33N 40°27' W 073°49'1413.9
2016-May-23 19:33N 40°37' W 074°03'6 5.6
2016-May-23 18:33N 40°40' W 074°08'0 0.0
2016-May-23 17:30N 40°40' W 074°08'0 0.0
2016-May-23 16:33N 40°40' W 074°08'0 0.0
2016-May-23 15:30N 40°40' W 074°08'0 0.0
2016-May-23 14:33N 40°40' W 074°08'0 0.0
2016-May-23 13:30N 40°40' W 074°08'0 0.0
2016-May-23 12:33N 40°40' W 074°08'0 0.0
2016-May-23 11:33N 40°40' W 074°08'0 0.0
2016-May-23 10:33N 40°40' W 074°08'0 0.0
2016-May-23 09:33N 40°40' W 074°08'0 0.0
2016-May-23 08:33N 40°40' W 074°08'0 0.0
2016-May-23 07:33N 40°40' W 074°08'0 0.0
2016-May-23 06:33N 40°40' W 074°08'0 0.0
2016-May-23 05:33N 40°40' W 074°08'0 0.0
2016-May-23 04:33N 40°40' W 074°08'0 0.0
2016-May-23 03:33N 40°40' W 074°08'0 0.0
2016-May-23 02:33N 40°40' W 074°08'0 0.0
2016-May-23 01:33N 40°40' W 074°08'0 0.0
2016-May-23 00:33N 40°40' W 074°08'0 0.0
2016-May-22 23:33N 40°40' W 074°08'0 0.0
2016-May-22 22:33N 40°40' W 074°08'0 0.0
2016-May-22 21:30N 40°40' W 074°08'0 0.0
2016-May-22 19:33N 40°40' W 074°08'0 0.0
2016-May-22 18:33N 40°40' W 074°08'0 0.0
2016-May-22 17:33N 40°40' W 074°08'0 0.0
2016-May-22 16:33N 40°40' W 074°08'0 0.0
2016-May-22 15:33N 40°40' W 074°08'0 0.0
2016-May-22 14:34N 40°40' W 074°08'3 2.7
2016-May-22 13:34N 40°39' W 074°05'1111.0
2016-May-22 12:33N 40°30' W 073°57'1110.6
2016-May-22 11:31N 40°27' W 073°43'5 0.6
2016-May-22 03:32N 40°30' W 073°38'0 0.0
2016-May-22 01:20N 40°30' W 073°38'76 8.3
2016-May-21 16:12N 40°31' W 071°58'  
2016-May-19 12:00N 44°00' W 062°24'22218.5 110 / 51022.010.8 0.5 7.0 5.0
2016-May-19 00:00N 43°00' W 057°30'10617.6 270 / 101021.010.8 1.011.0 7.0
2016-May-18 18:00N 42°30' W 055°12'39616.5 250 / 151022.010.8 2.513.010.0
2016-May-17 18:00N 41°36' W 046°24'10317.2 230 / 301021.0 5.4 3.019.017.0
2016-May-17 12:00N 41°36' W 044°06'10317.2 220 / 271022.0 5.4 3.020.017.020.0
2016-May-17 06:00N 41°36' W 041°48'9916.5 230 / 201027.0 5.4 18.017.0
2016-May-17 00:00N 41°36' W 039°36'10016.6 300 / 181030.0 5.4 18.017.0
2016-May-16 18:00N 41°24' W 037°24'19916.6 230 / 151028.5 5.4 2.519.016.024.0
2016-May-16 06:00N 41°06' W 033°00'6918.0 250 / 181024.010.8 17.015.0
2016-May-16 02:10N 40°59' W 031°29'2918.1
2016-May-16 00:32N 40°55' W 030°50'1528.7
2016-May-16 00:00N 40°54' W 030°30'4 7.2 280 / 81029.010.8 0.517.014.0
2016-May-15 23:30N 40°53' W 030°26'1718.5
2016-May-15 22:33N 40°50' W 030°03'1818.5
2016-May-15 21:33N 40°47' W 029°39'1918.6
2016-May-15 20:33N 40°44' W 029°14'2618.8
2016-May-15 19:09N 40°40' W 028°40'2218.8
2016-May-15 18:00N 40°36' W 028°12'   270 / 51028.010.8 0.521.016.0

Dump ship's entire track history